메인 페이지
METAR-TAF:

METAR-TAF

공항 :

로건 국제공항

보스턴, 매사추세츠, 미국

위도: 42-21-38N, 경도: 071-00-38W, 고도: 6m

현재 날씨관측

예보는 44분 전, 09:54시(UTC)에 발표되었습니다.
남서9kt
온도 9°C
습도 81%
기압 1021 hPa
시정: 16.1km
고도 4100ft 상공 흐림

METAR: KBOS 150954Z 23009KT 10SM OVC041 09/06 A3015 RMK AO2 SLP209 T00940061

시각: 05:38 (10:38 UTC)

예보

예보는 1 시간 32분 전, 09:06시(UTC)에 발표되었습니다.
예보 대상 시간: 15일 09시부터 16일 12시까지 (UTC)
남서10kt
시정: 10km
고도 5000ft 상공 구름 많음
15일 1300시부터 (UTC)
7kt
시정: 10km
고도 5000ft 상공 흐림
15일 1600시부터 (UTC)
서북서5kt
시정: 10km
고도 5000ft 상공 구름 많음
15일 1900시부터 (UTC)
6kt
시정: 10km
고도 20000ft 상공 구름 보통
16일 0800시부터 (UTC)
북동9kt
시정: 10km
고도 20000ft 상공 구름 많음
16일 1100시부터 (UTC)
북동10kt, 순간 최대 풍속 19kt
시정: 10km
고도 2000ft 상공 구름 많음

TAF: KBOS 150906Z 1509/1612 22010KT P6SM BKN050 FM151300 26007KT P6SM OVC050 FM151600 30005KT P6SM BKN050 FM151900 36006KT P6SM SCT200 FM160800 05009KT P6SM BKN200 FM161100 05010G19KT P6SM BKN020

4,000개 이상의 공항 관측 자료 및 예보 (METAR 및 TAF 보고).

지도상에서 검색 가능한 기상관측소가 노란 점과 빨간 점으로 표시되어 있습니다.

기상관측소 명을 보려면 표시 위로 마우스를 이동하세요.

날씨 관측과 예보를 보려면 클릭하세요.

지도 변경 : 확대하려면 엑스 표시가 있는 녹색 버튼, 축소하려면 빼기 표시가 있는 녹색 버튼, 다음 페이지의 지도를 보려면 녹색 화살표를 클릭하세요.


METAR-TAF: